CheckWX is a tool to help pilots better visualize weather data.  It is not intended as a substitute for an official pre-flight weather briefing.

21:32:59 UTC

SLVR TAF
Viru Viru International Airport
Santa Cruz, Bolivia
TAF SLVR 161640Z 1618/1718 18015G25KT 8000 RA SCT008 BKN020 FEW030CB OVC070 TX23/1619Z TN15/1711Z BECMG 1620/1622 9999 NSW BKN023 BKN070 TEMPO 1702/1705 8000 RA BECMG 1715/1718 VRB02KT SCT008 BKN015

Jun-16@
18:00 UTC

Jun-16 @ 18:00 UTC

Jun-16@
20:00 UTC

Jun-16 @ 20:00 UTC

TAF SLVR 161640Z 1618/1718 18015G25KT 8000 RA SCT008 BKN020 FEW030CB OVC070 TX23/1619Z TN15/1711Z

Expired

Wind
  • 180° at 15 KTS
  • {Gusting to 25 KTS
Conditions
Rain
Cloud Levels
  • Scattered at 800' AGL
  • Broken at 2,000' AGL
  • Few at 3,000' AGL

Jun-16@
20:00 UTC

Jun-16 @ 20:00 UTC

Jun-17@
15:00 UTC

Jun-17 @ 15:00 UTC

BECMG 1620/1622 9999 NSW BKN023 BKN070

Becoming

Becoming Conditions expected by Sun, Jun 16, 2019 @ 22:00 UTC

Wind
  • 180° at 15 KTS
  • {Gusting to 25 KTS
Conditions
No significant weather
Cloud Levels
  • Broken at 2,300' AGL
  • Broken at 7,000' AGL

Jun-17@
02:00 UTC

Jun-17 @ 02:00 UTC

Jun-17@
05:00 UTC

Jun-17 @ 05:00 UTC

TEMPO 1702/1705 8000 RA

Temporary

Temporary Changes expected for less than half the time period

Conditions
Rain

Jun-17@
15:00 UTC

Jun-17 @ 15:00 UTC

Jun-17@
18:00 UTC

Jun-17 @ 18:00 UTC

BECMG 1715/1718 VRB02KT SCT008 BKN015

Becoming

Becoming Conditions expected by Mon, Jun 17, 2019 @ 18:00 UTC

Wind
  • Variable at 2 KTS
Conditions
No significant weather
Cloud Levels
  • Scattered at 800' AGL
  • Broken at 1,500' AGL